Jackson, Wyoming
Current Conditions -  °F | °C
As of 2:35 AM on Sunday 26 Oct 2014 (Local Time) from KJAC Reporting Station
Overcast Overcast  
Wind Chill: 38°   Ceiling: 3300
Heat Index: 46°   Visibility: 10mi
Dew Point: 36°   Wind: 23mph
Humidity: 66%   Direction: 210°SSW
Pressure: 29.97"   Gusts: 31mph
Location:  43.48°N, 110.76°W
Report Text: KJAC 260835Z AUTO 21020G27KT 10SM OVC033 08/02 A2997 RMK AO1
Loading
Personal Weather Stations






























Interactive Weather Map
Tropical Storm Tracking
New forecast layout! Learn more

10-Day Weather Forecast

Advertisements
Track Severe Weather on mobile